Time;durP1;ratioP1;P1;durP2;ratioP2;P2;SDS_P1;SDS_P2;PMS_P1;PMS_P2;Temp;Humidity;BMP_temperature;BMP_pressure;BME280_temperature;BME280_humidity;BME280_pressure;Samples;Min_cycle;Max_cycle;Signal;HPM_P1;HPM_P2
2023/10/15 00:00:23;;;;;;;7.32;1.27;;;;;;;-148.88;100.00;-17125.47;5035664;28;20025;-77
2023/10/15 00:02:51;;;;;;;7.13;1.25;;;;;;;-148.88;100.00;-17125.47;5035775;28;20021;-77
2023/10/15 00:05:25;;;;;;;8.52;1.48;;;;;;;-148.88;100.00;-17125.47;5034158;28;20022;-77
2023/10/15 00:07:51;;;;;;;14.05;1.55;;;;;;;-148.88;100.00;-17125.47;5035737;28;20049;-77
2023/10/15 00:10:21;;;;;;;12.60;2.78;;;;;;;-148.88;100.00;-17125.47;5033946;28;20021;-77
2023/10/15 00:12:49;;;;;;;3.67;1.13;;;;;;;-148.88;100.00;-17125.47;5034109;28;20029;-77
2023/10/15 00:15:19;;;;;;;6.75;1.70;;;;;;;-148.88;100.00;-17125.47;5035530;28;20021;-77
2023/10/15 00:17:48;;;;;;;5.10;1.70;;;;;;;-148.88;100.00;-17125.47;5035314;28;20037;-77
2023/10/15 00:20:17;;;;;;;8.93;1.48;;;;;;;-148.88;100.00;-17125.47;5035119;28;20037;-77
2023/10/15 00:22:47;;;;;;;9.75;1.50;;;;;;;-148.88;100.00;-17125.47;5035308;28;20022;-77
2023/10/15 00:25:14;;;;;;;4.68;1.17;;;;;;;-148.88;100.00;-17125.47;5033853;28;20022;-77
2023/10/15 00:27:52;;;;;;;10.48;2.97;;;;;;;-148.88;100.00;-17125.47;5033896;28;20021;-77
2023/10/15 00:30:19;;;;;;;6.15;1.42;;;;;;;-148.88;100.00;-17125.47;5033788;28;20091;-77
2023/10/15 00:32:45;;;;;;;3.90;1.27;;;;;;;-148.88;100.00;-17125.47;5033914;28;20048;-77
2023/10/15 00:35:13;;;;;;;10.65;1.63;;;;;;;-148.88;100.00;-17125.47;5035028;28;20047;-77
2023/10/15 00:37:46;;;;;;;9.98;2.15;;;;;;;-148.88;100.00;-17125.47;5034992;28;20104;-77
2023/10/15 00:40:16;;;;;;;7.53;1.10;;;;;;;-148.88;100.00;-17125.47;5033525;28;20041;-77
2023/10/15 00:42:43;;;;;;;10.60;2.55;;;;;;;-148.88;100.00;-17125.47;5033651;28;20494;-77
2023/10/15 00:45:08;;;;;;;8.07;2.53;;;;;;;-148.88;100.00;-17125.47;5034622;28;20026;-77
2023/10/15 00:47:35;;;;;;;12.48;1.45;;;;;;;-148.88;100.00;-17125.47;5033196;28;20031;-77
2023/10/15 00:50:07;;;;;;;4.47;1.40;;;;;;;-148.88;100.00;-17125.47;5033365;28;20037;-77
2023/10/15 00:52:37;;;;;;;5.85;1.23;;;;;;;-148.88;100.00;-17125.47;5034646;28;20022;-77
2023/10/15 00:55:05;;;;;;;9.73;2.67;;;;;;;-148.88;100.00;-17125.47;5033359;28;20465;-77
2023/10/15 00:57:41;;;;;;;7.05;2.03;;;;;;;-148.88;100.00;-17125.47;5033095;28;20440;-77
2023/10/15 01:00:38;;;;;;;6.50;1.42;;;;;;;-148.88;100.00;-17125.47;5033372;28;20036;-77
2023/10/15 01:02:57;;;;;;;5.40;1.33;;;;;;;-148.88;100.00;-17125.47;5034634;28;20030;-77
2023/10/15 01:05:25;;;;;;;7.65;1.42;;;;;;;-148.88;100.00;-17125.47;5034379;28;20059;-77
2023/10/15 01:07:52;;;;;;;8.93;2.03;;;;;;;-148.88;100.00;-17125.47;5033039;28;20034;-77
2023/10/15 01:10:37;;;;;;;4.25;1.25;;;;;;;-148.88;100.00;-17125.47;5033441;28;20022;-77
2023/10/15 01:13:21;;;;;;;12.77;3.33;;;;;;;-148.88;100.00;-17125.47;5034285;28;20032;-77
2023/10/15 01:15:52;;;;;;;11.70;2.03;;;;;;;-148.88;100.00;-17125.47;5033280;28;20018;-77
2023/10/15 01:18:17;;;;;;;15.73;2.17;;;;;;;-148.88;100.00;-17125.47;5034157;28;20049;-77
2023/10/15 01:20:43;;;;;;;5.10;1.55;;;;;;;-148.88;100.00;-17125.47;5034018;28;20057;-77
2023/10/15 01:23:13;;;;;;;7.28;1.63;;;;;;;-148.88;100.00;-17125.47;5032828;28;20022;-77
2023/10/15 01:25:48;;;;;;;2.97;1.05;;;;;;;-148.88;100.00;-17125.47;5032671;28;20091;-77
2023/10/15 01:28:13;;;;;;;6.32;1.30;;;;;;;-148.88;100.00;-17125.47;5032620;28;20040;-77
2023/10/15 01:30:41;;;;;;;7.40;1.85;;;;;;;-148.88;100.00;-17125.47;5033842;28;20400;-77
2023/10/15 01:33:10;;;;;;;4.28;1.00;;;;;;;-148.88;100.00;-17125.47;5034305;28;20455;-77
2023/10/15 01:35:38;;;;;;;10.52;2.10;;;;;;;-148.88;100.00;-17125.47;5032614;28;20014;-77
2023/10/15 01:38:10;;;;;;;7.32;1.15;;;;;;;-148.88;100.00;-17125.47;5032424;28;20438;-77
2023/10/15 01:40:44;;;;;;;3.55;0.90;;;;;;;-148.88;100.00;-17125.47;5033714;28;20026;-77
2023/10/15 01:43:15;;;;;;;4.82;1.02;;;;;;;-148.88;100.00;-17125.47;5032455;28;20436;-77
2023/10/15 01:45:41;;;;;;;10.07;2.20;;;;;;;-148.88;100.00;-17125.47;5032382;28;20034;-77
2023/10/15 01:48:25;;;;;;;4.95;0.82;;;;;;;-148.88;100.00;-17125.47;5032249;28;20074;-77
2023/10/15 01:50:51;;;;;;;7.45;2.00;;;;;;;-148.88;100.00;-17125.47;5033717;28;20052;-77
2023/10/15 01:53:23;;;;;;;6.70;2.03;;;;;;;-148.88;100.00;-17125.47;5033462;28;20032;-77
2023/10/15 01:55:56;;;;;;;6.28;1.50;;;;;;;-148.88;100.00;-17125.47;5033774;28;20047;-77
2023/10/15 01:58:30;;;;;;;;;;;;;;;-148.88;100.00;-17125.47;5031980;28;20032;-77
2023/10/15 02:01:04;;;;;;;2.53;0.70;;;;;;;-148.88;100.00;-17125.47;5033737;28;19909;-77
2023/10/15 02:03:31;;;;;;;3.45;1.20;;;;;;;-148.88;100.00;-17125.47;5033443;28;20029;-77
2023/10/15 02:06:01;;;;;;;5.03;1.23;;;;;;;-148.88;100.00;-17125.47;5032222;28;20560;-77
2023/10/15 02:08:26;;;;;;;4.32;0.95;;;;;;;-148.88;100.00;-17125.47;5031915;28;20017;-77
2023/10/15 02:10:52;;;;;;;2.35;0.82;;;;;;;-148.88;100.00;-17125.47;5033489;28;20074;-77
2023/10/15 02:13:20;;;;;;;5.20;0.85;;;;;;;-148.88;100.00;-17125.47;5032541;28;20191;-77
2023/10/15 02:15:46;;;;;;;4.50;0.80;;;;;;;-148.88;100.00;-17125.47;5031973;28;20025;-77
2023/10/15 02:18:17;;;;;;;7.88;1.80;;;;;;;-148.88;100.00;-17125.47;5032018;28;20052;-77
2023/10/15 02:23:19;;;;;;;4.30;0.85;;;;;;;-148.88;100.00;-17125.47;5033759;28;20025;-77
2023/10/15 02:25:46;;;;;;;6.50;1.05;;;;;;;-148.88;100.00;-17125.47;5031605;28;20030;-77
2023/10/15 02:28:25;;;;;;;5.00;1.08;;;;;;;-148.88;100.00;-17125.47;5031649;28;20045;-77
2023/10/15 02:33:32;;;;;;;4.75;1.48;;;;;;;-148.88;100.00;-17125.47;5032963;28;20097;-77
2023/10/15 02:36:04;;;;;;;3.80;1.08;;;;;;;-148.88;100.00;-17125.47;5032654;28;20390;-77
2023/10/15 02:38:36;;;;;;;4.18;1.30;;;;;;;-148.88;100.00;-17125.47;5031427;28;20509;-77
2023/10/15 02:41:11;;;;;;;3.42;0.70;;;;;;;-148.88;100.00;-17125.47;5031546;28;20029;-77
2023/10/15 02:43:36;;;;;;;3.20;0.80;;;;;;;-148.88;100.00;-17125.47;5032711;28;20029;-77
2023/10/15 02:46:12;;;;;;;5.90;0.90;;;;;;;-148.88;100.00;-17125.47;5032831;28;20028;-77
2023/10/15 02:48:41;;;;;;;1.42;0.70;;;;;;;-148.88;100.00;-17125.47;5031340;28;20021;-77
2023/10/15 02:51:09;;;;;;;3.92;1.27;;;;;;;-148.88;100.00;-17125.47;5031177;28;20025;-77
2023/10/15 02:53:50;;;;;;;1.63;0.65;;;;;;;-148.88;100.00;-17125.47;5031463;28;20032;-76
2023/10/15 02:56:15;;;;;;;5.80;1.52;;;;;;;-148.88;100.00;-17125.47;5031179;28;20478;-76
2023/10/15 02:58:43;;;;;;;5.82;0.80;;;;;;;-148.88;100.00;-17125.47;5032317;28;20033;-76
2023/10/15 03:01:19;;;;;;;3.00;1.25;;;;;;;-148.88;100.00;-17125.47;5032505;28;20053;-76
2023/10/15 03:03:54;;;;;;;5.68;0.70;;;;;;;-148.88;100.00;-17125.47;5031960;28;20103;-77
2023/10/15 03:06:26;;;;;;;3.78;0.90;;;;;;;-148.88;100.00;-17125.47;5032436;28;20025;-76
2023/10/15 03:08:52;;;;;;;4.97;1.02;;;;;;;-148.88;100.00;-17125.47;5030925;28;20022;-76
2023/10/15 03:11:20;;;;;;;2.42;0.80;;;;;;;-148.88;100.00;-17125.47;5032494;28;20025;-76
2023/10/15 03:13:55;;;;;;;4.75;1.00;;;;;;;-148.88;100.00;-17125.47;5032289;28;20501;-76
2023/10/15 03:16:35;;;;;;;4.25;0.95;;;;;;;-148.88;100.00;-17125.47;5031010;28;20417;-76
2023/10/15 03:19:17;;;;;;;2.33;0.60;;;;;;;-148.88;100.00;-17125.47;5031117;28;20029;-76
2023/10/15 03:21:43;;;;;;;1.58;0.55;;;;;;;-148.88;100.00;-17125.47;5031115;28;20025;-76
2023/10/15 03:24:09;;;;;;;2.92;1.00;;;;;;;-148.88;100.00;-17125.47;5030904;28;20029;-75
2023/10/15 03:26:35;;;;;;;3.78;0.68;;;;;;;-148.88;100.00;-17125.47;5030772;28;20152;-76
2023/10/15 03:29:06;;;;;;;3.75;0.77;;;;;;;-148.88;100.00;-17125.47;5030840;28;20028;-76
2023/10/15 03:31:32;;;;;;;2.08;0.73;;;;;;;-148.88;100.00;-17125.47;5030890;28;20037;-75
2023/10/15 03:36:57;;;;;;;3.97;0.98;;;;;;;-148.88;100.00;-17125.47;5011121;28;20124;-77
2023/10/15 03:44:44;;;;;;;3.80;0.63;;;;;;;-148.88;100.00;-17125.47;5032109;28;20040;-76
2023/10/15 03:47:22;;;;;;;1.67;0.65;;;;;;;-148.88;100.00;-17125.47;5030806;28;20021;-76
2023/10/15 03:49:51;;;;;;;1.10;0.52;;;;;;;-148.88;100.00;-17125.47;5030536;28;20025;-76
2023/10/15 03:52:20;;;;;;;1.10;0.47;;;;;;;-148.88;100.00;-17125.47;5031170;28;20032;-77
2023/10/15 03:54:55;;;;;;;2.75;0.45;;;;;;;-148.88;100.00;-17125.47;5032138;28;20052;-77
2023/10/15 03:57:22;;;;;;;1.42;0.38;;;;;;;-148.88;100.00;-17125.47;5032515;28;20107;-76
2023/10/15 03:59:54;;;;;;;3.97;0.40;;;;;;;-148.88;100.00;-17125.47;5032068;28;20025;-76
2023/10/15 04:02:26;;;;;;;1.45;0.30;;;;;;;-148.88;100.00;-17125.47;5030488;28;20055;-76
2023/10/15 04:05:12;;;;;;;1.40;0.52;;;;;;;-148.88;100.00;-17125.47;5031868;28;20460;-76
2023/10/15 04:07:48;;;;;;;5.30;0.47;;;;;;;-148.88;100.00;-17125.47;5031839;28;20107;-76
2023/10/15 04:10:14;;;;;;;2.80;0.40;;;;;;;-148.88;100.00;-17125.47;5031818;28;20025;-76
2023/10/15 04:12:43;;;;;;;1.60;0.50;;;;;;;-148.88;100.00;-17125.47;5031863;28;20032;-76
2023/10/15 04:15:14;;;;;;;3.35;0.40;;;;;;;-148.88;100.00;-17125.47;5030610;28;20020;-76
2023/10/15 04:17:41;;;;;;;2.95;0.70;;;;;;;-148.88;100.00;-17125.47;5030832;28;20018;-76
2023/10/15 04:20:07;;;;;;;2.85;0.60;;;;;;;-148.88;100.00;-17125.47;5031791;28;20101;-76
2023/10/15 04:22:39;;;;;;;1.50;0.30;;;;;;;-148.88;100.00;-17125.47;5033867;28;20021;-76
2023/10/15 04:25:08;;;;;;;1.20;0.32;;;;;;;-148.88;100.00;-17125.47;5034252;28;20413;-77
2023/10/15 04:27:34;;;;;;;1.35;0.63;;;;;;;-148.88;100.00;-17125.47;5035179;28;20025;-76
2023/10/15 04:30:03;;;;;;;0.80;0.40;;;;;;;-148.88;100.00;-17125.47;5033812;28;20150;-76
2023/10/15 04:32:29;;;;;;;1.75;0.40;;;;;;;-148.88;100.00;-17125.47;5033900;28;20045;-76
2023/10/15 04:35:01;;;;;;;2.20;0.43;;;;;;;-148.88;100.00;-17125.47;5034054;28;20061;-77
2023/10/15 04:37:27;;;;;;;0.73;0.40;;;;;;;-148.88;100.00;-17125.47;5034185;28;20025;-77
2023/10/15 04:39:54;;;;;;;1.20;0.50;;;;;;;-148.88;100.00;-17125.47;5035461;28;20021;-79
2023/10/15 04:42:29;;;;;;;2.47;1.17;;;;;;;-148.88;100.00;-17125.47;5033794;28;20504;-77
2023/10/15 04:44:55;;;;;;;0.93;0.40;;;;;;;-148.88;100.00;-17125.47;5033821;28;20517;-77
2023/10/15 04:50:19;;;;;;;1.25;0.60;;;;;;;-148.88;100.00;-17125.47;5012098;28;20029;-77
2023/10/15 04:52:44;;;;;;;2.25;0.52;;;;;;;-148.88;100.00;-17125.47;5033464;28;20021;-77
2023/10/15 04:55:13;;;;;;;0.88;0.52;;;;;;;-148.88;100.00;-17125.47;5034715;28;20046;-77
2023/10/15 04:57:39;;;;;;;2.35;0.80;;;;;;;-148.88;100.00;-17125.47;5034736;28;20462;-77
2023/10/15 05:00:06;;;;;;;5.32;1.25;;;;;;;-148.88;100.00;-17125.47;5033417;28;20036;-76
2023/10/15 05:02:33;;;;;;;2.85;0.82;;;;;;;-148.88;100.00;-17125.47;5034936;28;20030;-77
2023/10/15 05:05:00;;;;;;;5.65;1.42;;;;;;;-148.88;100.00;-17125.47;5033781;28;20029;-77
2023/10/15 05:07:29;;;;;;;3.70;1.17;;;;;;;-148.88;100.00;-17125.47;5033279;28;20055;-76
2023/10/15 05:09:55;;;;;;;2.78;1.00;;;;;;;-148.88;100.00;-17125.47;5034470;28;20482;-76
2023/10/15 05:12:20;;;;;;;4.22;1.00;;;;;;;-148.88;100.00;-17125.47;5035226;28;20163;-77
2023/10/15 05:14:49;;;;;;;3.25;0.90;;;;;;;-148.88;100.00;-17125.47;5034846;28;20029;-78
2023/10/15 05:17:17;;;;;;;4.38;0.60;;;;;;;-148.88;100.00;-17125.47;5034593;28;20374;-76
2023/10/15 05:19:43;;;;;;;4.22;1.08;;;;;;;-148.88;100.00;-17125.47;5034240;28;20474;-76
2023/10/15 05:22:09;;;;;;;2.30;0.73;;;;;;;-148.88;100.00;-17125.47;5033008;28;20036;-75
2023/10/15 05:24:35;;;;;;;3.25;1.00;;;;;;;-148.88;100.00;-17125.47;5034105;28;20021;-76
2023/10/15 05:27:00;;;;;;;2.80;1.05;;;;;;;-148.88;100.00;-17125.47;5029030;28;20021;-77
2023/10/15 05:29:26;;;;;;;3.13;1.00;;;;;;;-148.88;100.00;-17125.47;5030404;28;20028;-77
2023/10/15 05:31:53;;;;;;;1.75;1.08;;;;;;;-148.88;100.00;-17125.47;5013088;28;20117;-77
2023/10/15 05:34:19;;;;;;;4.35;2.03;;;;;;;-148.88;100.00;-17125.47;5011095;28;20584;-76
2023/10/15 05:36:45;;;;;;;1.88;0.93;;;;;;;-148.88;100.00;-17125.47;5011837;28;20029;-77
2023/10/15 05:39:10;;;;;;;4.03;0.98;;;;;;;-148.88;100.00;-17125.47;5014018;28;20018;-77
2023/10/15 05:41:37;;;;;;;2.85;1.00;;;;;;;-148.88;100.00;-17125.47;5014087;28;20026;-76
2023/10/15 05:44:03;;;;;;;4.88;1.10;;;;;;;-148.88;100.00;-17125.47;5012428;28;20033;-76
2023/10/15 05:46:29;;;;;;;5.30;2.08;;;;;;;-148.88;100.00;-17125.47;5014078;28;20022;-77
2023/10/15 05:48:55;;;;;;;4.15;1.90;;;;;;;-148.88;100.00;-17125.47;5012933;28;20034;-77
2023/10/15 05:51:23;;;;;;;3.25;1.27;;;;;;;-148.88;100.00;-17125.47;5014083;28;20024;-76
2023/10/15 05:53:49;;;;;;;2.47;1.20;;;;;;;-148.88;100.00;-17125.47;5013861;28;20375;-77
2023/10/15 05:56:14;;;;;;;2.38;1.10;;;;;;;-148.88;100.00;-17125.47;5012324;28;20036;-76
2023/10/15 05:58:39;;;;;;;2.72;1.45;;;;;;;-148.88;100.00;-17125.47;5013604;28;20105;-78
2023/10/15 06:01:05;;;;;;;3.25;1.30;;;;;;;-148.88;100.00;-17125.47;5012467;28;20216;-77
2023/10/15 06:03:31;;;;;;;2.95;1.23;;;;;;;-148.88;100.00;-17125.47;5013789;28;20037;-76
2023/10/15 06:05:57;;;;;;;1.50;1.05;;;;;;;-148.88;100.00;-17125.47;5013645;28;20037;-77
2023/10/15 06:08:22;;;;;;;4.40;1.50;;;;;;;-148.88;100.00;-17125.47;5013467;28;20455;-77
2023/10/15 06:10:48;;;;;;;4.43;1.50;;;;;;;-148.88;100.00;-17125.47;5012274;28;20041;-77
2023/10/15 06:13:13;;;;;;;3.05;1.35;;;;;;;-148.88;100.00;-17125.47;5012717;28;20094;-77
2023/10/15 06:15:39;;;;;;;4.20;1.38;;;;;;;-148.88;100.00;-17125.47;5012256;28;20045;-77
2023/10/15 06:18:04;;;;;;;7.00;1.73;;;;;;;-148.88;100.00;-17125.47;5012244;28;20079;-77
2023/10/15 06:20:30;;;;;;;3.22;1.35;;;;;;;-148.88;100.00;-17125.47;5013533;28;20398;-77
2023/10/15 06:22:55;;;;;;;3.85;2.40;;;;;;;-148.88;100.00;-17125.47;5013689;28;20018;-77
2023/10/15 06:25:21;;;;;;;4.53;1.33;;;;;;;-148.88;100.00;-17125.47;5013457;28;20076;-77
2023/10/15 06:27:46;;;;;;;4.30;2.15;;;;;;;-148.88;100.00;-17125.47;5012043;28;20033;-77
2023/10/15 06:30:16;;;;;;;7.10;1.50;;;;;;;-148.88;100.00;-17125.47;5011917;28;20030;-76
2023/10/15 06:32:47;;;;;;;6.50;1.38;;;;;;;-148.88;100.00;-17125.47;5011963;28;20032;-76
2023/10/15 06:35:18;;;;;;;2.42;1.33;;;;;;;-148.88;100.00;-17125.47;5013399;28;20049;-76
2023/10/15 06:38:01;;;;;;;3.15;1.13;;;;;;;-148.88;100.00;-17125.47;5011978;28;20052;-76
2023/10/15 06:40:28;;;;;;;2.07;1.10;;;;;;;-148.88;100.00;-17125.47;5012250;28;20026;-76
2023/10/15 06:43:00;;;;;;;2.38;1.20;;;;;;;-148.88;100.00;-17125.47;5013580;28;20021;-76
2023/10/15 06:45:25;;;;;;;2.92;1.48;;;;;;;-148.88;100.00;-17125.47;5012174;28;20486;-76
2023/10/15 06:47:55;;;;;;;6.38;1.58;;;;;;;-148.88;100.00;-17125.47;5013276;28;20097;-77
2023/10/15 06:50:21;;;;;;;5.25;1.45;;;;;;;-148.88;100.00;-17125.47;5013273;28;20022;-76
2023/10/15 06:52:47;;;;;;;2.85;1.10;;;;;;;-148.88;100.00;-17125.47;5011869;28;20117;-79
2023/10/15 06:55:19;;;;;;;2.13;0.93;;;;;;;-148.88;100.00;-17125.47;5013449;28;20045;-77
2023/10/15 06:57:46;;;;;;;4.28;1.25;;;;;;;-148.88;100.00;-17125.47;5014367;28;20029;-77
2023/10/15 07:00:12;;;;;;;1.83;1.00;;;;;;;-148.88;100.00;-17125.47;5016858;28;20049;-77
2023/10/15 07:02:38;;;;;;;5.43;1.17;;;;;;;-148.88;100.00;-17125.47;5015193;28;20029;-77
2023/10/15 07:05:05;;;;;;;6.32;1.13;;;;;;;-148.88;100.00;-17125.47;5014796;28;20022;-77
2023/10/15 07:07:34;;;;;;;3.45;1.10;;;;;;;-148.88;100.00;-17125.47;5013643;28;20033;-77
2023/10/15 07:10:04;;;;;;;2.60;1.08;;;;;;;-148.88;100.00;-17125.47;5014988;28;20025;-77
2023/10/15 07:12:29;;;;;;;4.00;1.10;;;;;;;-148.88;100.00;-17125.47;5015290;28;20045;-78
2023/10/15 07:14:55;;;;;;;6.22;2.40;;;;;;;-148.88;100.00;-17125.47;5013734;28;20435;-77
2023/10/15 07:17:20;;;;;;;6.30;1.75;;;;;;;-148.88;100.00;-17125.47;5015080;28;20072;-77
2023/10/15 07:19:46;;;;;;;3.78;1.00;;;;;;;-148.88;100.00;-17125.47;5014901;28;20030;-78
2023/10/15 07:22:11;;;;;;;3.28;0.95;;;;;;;-148.88;100.00;-17125.47;5015284;28;20120;-77
2023/10/15 07:24:36;;;;;;;3.40;1.23;;;;;;;-148.88;100.00;-17125.47;5015224;28;20061;-78
2023/10/15 07:27:04;;;;;;;3.05;1.45;;;;;;;-148.88;100.00;-17125.47;5013976;28;20022;-77
2023/10/15 07:29:30;;;;;;;4.45;2.33;;;;;;;-148.88;100.00;-17125.47;5014258;28;20113;-77
2023/10/15 07:31:55;;;;;;;3.95;1.55;;;;;;;-148.88;100.00;-17125.47;5016183;28;20034;-78
2023/10/15 07:34:22;;;;;;;3.58;1.20;;;;;;;-148.88;100.00;-17125.47;5015314;28;20158;-78
2023/10/15 07:36:50;;;;;;;2.95;0.98;;;;;;;-148.88;100.00;-17125.47;5016316;28;20026;-77
2023/10/15 07:39:17;;;;;;;7.45;1.63;;;;;;;-148.88;100.00;-17125.47;5013060;28;20054;-77
2023/10/15 07:41:43;;;;;;;2.05;0.93;;;;;;;-148.88;100.00;-17125.47;5012334;28;20042;-74
2023/10/15 07:44:08;;;;;;;2.25;0.90;;;;;;;-148.88;100.00;-17125.47;5012696;28;20403;-77
2023/10/15 07:46:34;;;;;;;3.80;0.85;;;;;;;-148.88;100.00;-17125.47;5013829;28;20037;-76
2023/10/15 07:49:00;;;;;;;5.13;1.42;;;;;;;-148.88;100.00;-17125.47;5011381;28;20033;-76
2023/10/15 07:51:27;;;;;;;2.08;0.93;;;;;;;-148.88;100.00;-17125.47;5012146;28;20537;-76
2023/10/15 07:53:52;;;;;;;1.13;0.60;;;;;;;-148.88;100.00;-17125.47;5011321;28;20032;-75
2023/10/15 07:56:18;;;;;;;0.90;0.60;;;;;;;-148.88;100.00;-17125.47;5013455;28;20389;-74
2023/10/15 07:58:43;;;;;;;1.45;0.85;;;;;;;-148.88;100.00;-17125.47;5012379;28;20029;-74
2023/10/15 08:01:09;;;;;;;1.38;1.00;;;;;;;-148.88;100.00;-17125.47;5014766;28;20022;-76
2023/10/15 08:03:34;;;;;;;3.22;1.20;;;;;;;-148.88;100.00;-17125.47;5014873;28;20044;-76
2023/10/15 08:06:03;;;;;;;4.50;1.02;;;;;;;-148.88;100.00;-17125.47;5015014;28;20447;-76
2023/10/15 08:08:29;;;;;;;1.98;0.88;;;;;;;-148.88;100.00;-17125.47;5015020;28;20025;-76
2023/10/15 08:10:56;;;;;;;3.58;0.73;;;;;;;-148.88;100.00;-17125.47;5016924;28;20040;-76
2023/10/15 08:13:22;;;;;;;1.83;0.88;;;;;;;-148.88;100.00;-17125.47;5016474;28;20029;-76
2023/10/15 08:15:47;;;;;;;3.10;0.90;;;;;;;-148.88;100.00;-17125.47;5016592;28;20022;-77
2023/10/15 08:18:13;;;;;;;1.65;0.68;;;;;;;-148.88;100.00;-17125.47;5014532;28;20509;-75
2023/10/15 08:20:38;;;;;;;3.60;1.33;;;;;;;-148.88;100.00;-17125.47;5014243;28;20486;-76
2023/10/15 08:23:04;;;;;;;4.25;1.02;;;;;;;-148.88;100.00;-17125.47;5014558;28;20032;-76
2023/10/15 08:25:33;;;;;;;2.85;0.77;;;;;;;-148.88;100.00;-17125.47;5015601;28;20121;-76
2023/10/15 08:27:58;;;;;;;4.75;1.27;;;;;;;-148.88;100.00;-17125.47;5014752;28;20487;-76
2023/10/15 08:30:24;;;;;;;4.00;1.17;;;;;;;-148.88;100.00;-17125.47;5015156;28;20039;-77
2023/10/15 08:32:49;;;;;;;7.55;2.13;;;;;;;-148.88;100.00;-17125.47;5015495;28;20025;-78
2023/10/15 08:35:16;;;;;;;4.55;1.27;;;;;;;-148.88;100.00;-17125.47;5016686;28;20057;-77
2023/10/15 08:37:42;;;;;;;5.90;1.40;;;;;;;-148.88;100.00;-17125.47;5014963;28;20026;-77
2023/10/15 08:40:15;;;;;;;4.68;1.00;;;;;;;-148.88;100.00;-17125.47;5014889;28;20049;-76
2023/10/15 08:42:57;;;;;;;2.42;1.35;;;;;;;-148.88;100.00;-17125.47;5014667;28;20029;-76
2023/10/15 08:45:23;;;;;;;3.25;0.90;;;;;;;-148.88;100.00;-17125.47;5015826;28;21079;-76
2023/10/15 08:47:50;;;;;;;3.92;1.13;;;;;;;-148.88;100.00;-17125.47;5037544;28;20060;-76
2023/10/15 08:50:16;;;;;;;2.75;1.40;;;;;;;-148.88;100.00;-17125.47;5035949;28;20532;-76
2023/10/15 08:52:44;;;;;;;2.38;0.98;;;;;;;-148.88;100.00;-17125.47;5033680;28;20457;-76
2023/10/15 08:55:10;;;;;;;3.47;1.25;;;;;;;-148.88;100.00;-17125.47;5014783;28;20529;-76
2023/10/15 08:57:37;;;;;;;3.92;1.23;;;;;;;-148.88;100.00;-17125.47;5015153;28;20501;-76
2023/10/15 09:00:04;;;;;;;4.80;1.02;;;;;;;-148.88;100.00;-17125.47;5013478;28;20114;-76
2023/10/15 09:02:30;;;;;;;1.38;0.70;;;;;;;-148.88;100.00;-17125.47;5013489;28;20036;-76
2023/10/15 09:04:55;;;;;;;4.15;1.10;;;;;;;-148.88;100.00;-17125.47;5014857;28;20482;-76
2023/10/15 09:07:22;;;;;;;2.47;0.70;;;;;;;-148.88;100.00;-17125.47;5014408;28;20112;-76
2023/10/15 09:09:49;;;;;;;4.38;1.40;;;;;;;-148.88;100.00;-17125.47;5013392;28;20026;-76
2023/10/15 09:12:14;;;;;;;4.82;0.88;;;;;;;-148.88;100.00;-17125.47;5013849;28;20037;-76
2023/10/15 09:14:44;;;;;;;4.25;1.17;;;;;;;-148.88;100.00;-17125.47;5013342;28;20061;-76
2023/10/15 09:17:14;;;;;;;3.65;1.27;;;;;;;-148.88;100.00;-17125.47;5014771;28;20071;-76
2023/10/15 09:19:49;;;;;;;4.20;1.20;;;;;;;-148.88;100.00;-17125.47;5013687;28;20034;-76
2023/10/15 09:22:14;;;;;;;4.25;1.20;;;;;;;-148.88;100.00;-17125.47;5013649;28;20071;-76
2023/10/15 09:24:49;;;;;;;3.72;0.90;;;;;;;-148.88;100.00;-17125.47;5023315;28;20040;-76
2023/10/15 09:27:14;;;;;;;1.60;0.50;;;;;;;-148.88;100.00;-17125.47;5023870;28;20482;-76
2023/10/15 09:29:41;;;;;;;2.67;1.10;;;;;;;-148.88;100.00;-17125.47;5014432;28;20030;-77
2023/10/15 09:32:07;;;;;;;2.38;1.15;;;;;;;-148.88;100.00;-17125.47;5013112;28;20040;-76
2023/10/15 09:34:37;;;;;;;1.30;0.55;;;;;;;-148.88;100.00;-17125.47;5013096;28;20021;-76
2023/10/15 09:37:05;;;;;;;4.05;1.15;;;;;;;-148.88;100.00;-17125.47;5014431;28;20036;-76
2023/10/15 09:39:31;;;;;;;2.63;1.10;;;;;;;-148.88;100.00;-17125.47;5033783;28;20025;-76
2023/10/15 09:41:57;;;;;;;2.25;0.80;;;;;;;-148.88;100.00;-17125.47;5033861;28;20075;-76
2023/10/15 09:44:24;;;;;;;2.38;0.90;;;;;;;-148.88;100.00;-17125.47;5033964;28;20029;-76
2023/10/15 09:46:50;;;;;;;4.75;1.40;;;;;;;-148.88;99.93;-17125.47;5032593;28;20040;-76
2023/10/15 09:49:18;;;;;;;1.48;0.70;;;;;;;-148.88;98.69;-17125.47;5034156;28;20026;-76
2023/10/15 09:51:47;;;;;;;5.57;0.80;;;;;;;-148.88;99.30;-17125.47;5034432;28;20056;-76
2023/10/15 09:54:14;;;;;;;3.35;1.17;;;;;;;-148.88;100.00;-17125.47;5034340;28;20029;-76
2023/10/15 09:56:41;;;;;;;6.15;1.30;;;;;;;-148.88;100.00;-17125.47;5034609;28;20093;-76
2023/10/15 09:59:07;;;;;;;4.18;1.42;;;;;;;-148.88;100.00;-17125.47;5034374;28;20026;-76
2023/10/15 10:01:36;;;;;;;4.47;1.10;;;;;;;-148.88;100.00;-17125.47;5034468;28;20083;-77
2023/10/15 10:04:14;;;;;;;3.55;0.68;;;;;;;-148.88;100.00;-17125.47;5032845;28;20025;-76
2023/10/15 10:07:05;;;;;;;2.53;0.60;;;;;;;-148.88;99.04;-17125.47;5033912;28;20080;-76
2023/10/15 10:09:36;;;;;;;2.38;0.60;;;;;;;-148.88;98.01;-17125.47;5032290;28;20074;-76
2023/10/15 10:12:35;;;;;;;1.75;0.73;;;;;;;-148.88;95.97;-17125.47;5033347;28;20026;-76
2023/10/15 10:15:29;;;;;;;3.05;0.93;;;;;;;-148.88;95.06;-17125.47;5033360;28;20049;-76
2023/10/15 10:17:55;;;;;;;2.70;1.10;;;;;;;-148.88;97.49;-17125.47;5033296;28;20032;-76
2023/10/15 10:20:31;;;;;;;2.05;0.60;;;;;;;-148.88;96.05;-17125.47;5032406;28;20390;-76
2023/10/15 10:23:05;;;;;;;2.88;1.10;;;;;;;-148.88;95.57;-17125.47;5033375;28;20142;-76
2023/10/15 10:25:31;;;;;;;3.65;1.02;;;;;;;-148.88;95.06;-17125.47;5032961;28;20037;-76
2023/10/15 10:28:08;;;;;;;3.00;1.10;;;;;;;-148.88;94.30;-17125.47;5033044;28;20032;-76
2023/10/15 10:30:33;;;;;;;1.02;0.50;;;;;;;-148.88;93.46;-17125.47;5032852;28;20033;-76
2023/10/15 10:33:04;;;;;;;3.75;0.90;;;;;;;-148.88;93.65;-17125.47;5033303;28;20021;-76
2023/10/15 10:35:45;;;;;;;2.95;0.90;;;;;;;-148.88;93.96;-17125.47;5033128;28;20036;-76
2023/10/15 10:38:18;;;;;;;4.35;0.90;;;;;;;-148.88;93.22;-17125.47;5033217;28;20021;-75
2023/10/15 10:40:56;;;;;;;3.03;0.98;;;;;;;-148.88;94.10;-17125.47;5032542;28;20029;-76
2023/10/15 10:43:24;;;;;;;2.13;0.90;;;;;;;-148.88;92.13;-17125.47;5098745;23;20459;-74
2023/10/15 10:45:57;;;;;;;3.20;1.15;;;;;;;-148.88;89.37;-17125.47;5032556;28;20017;-76
2023/10/15 10:48:23;;;;;;;3.97;1.25;;;;;;;-148.88;93.02;-17125.47;5031141;28;20132;-76
2023/10/15 10:51:11;;;;;;;2.22;0.90;;;;;;;-148.88;93.09;-17125.47;5032310;28;20025;-76
2023/10/15 10:53:38;;;;;;;1.60;0.50;;;;;;;-148.88;92.73;-17125.47;5032523;28;20486;-76
2023/10/15 10:56:05;;;;;;;1.40;0.70;;;;;;;-148.88;91.31;-17125.47;5032313;28;20030;-76
2023/10/15 10:58:30;;;;;;;3.42;1.35;;;;;;;-148.88;92.07;-17125.47;5030800;28;20489;-76
2023/10/15 11:00:59;;;;;;;3.53;1.20;;;;;;;-148.88;92.93;-17125.47;5032393;28;20026;-75
2023/10/15 11:03:25;;;;;;;2.85;1.00;;;;;;;-148.88;90.95;-17125.47;5032163;28;20017;-76
2023/10/15 11:05:54;;;;;;;4.88;0.88;;;;;;;-148.88;89.53;-17125.47;5032094;28;20047;-76
2023/10/15 11:08:21;;;;;;;1.60;0.45;;;;;;;-148.88;86.34;-17125.47;5032212;28;20017;-76
2023/10/15 11:10:47;;;;;;;2.15;0.40;;;;;;;-148.88;87.67;-17125.47;5032083;28;20043;-76
2023/10/15 11:13:17;;;;;;;2.50;0.70;;;;;;;-148.88;86.41;-17125.47;5030933;28;20025;-76
2023/10/15 11:15:51;;;;;;;5.50;1.20;;;;;;;-148.88;87.28;-17125.47;5031684;28;20041;-76
2023/10/15 11:18:23;;;;;;;1.88;0.70;;;;;;;-148.88;87.23;-17125.47;5032374;28;20512;-76
2023/10/15 11:20:52;;;;;;;2.58;0.70;;;;;;;-148.88;86.35;-17125.47;5032274;28;20080;-76
2023/10/15 11:23:18;;;;;;;2.90;1.00;;;;;;;-148.88;88.63;-17125.47;5030854;28;20048;-76
2023/10/15 11:25:45;;;;;;;4.10;0.88;;;;;;;-148.88;88.93;-17125.47;5031684;28;20053;-75